Time;durP1;ratioP1;P1;durP2;ratioP2;P2;SDS_P1;SDS_P2;PMS_P1;PMS_P2;Temp;Humidity;BMP_temperature;BMP_pressure;BME280_temperature;BME280_humidity;BME280_pressure;Samples;Min_cycle;Max_cycle;Signal;HPM_P1;HPM_P2
2022/10/12 00:01:10;;;;;;;17.10;11.40;;;;;;;13.29;82.19;101214.16;4986599;28;20466;-75
2022/10/12 00:03:36;;;;;;;28.75;10.98;;;;;;;13.78;82.39;101305.63;5008904;28;20041;-74
2022/10/12 00:06:14;;;;;;;26.08;12.02;;;;;;;13.44;83.34;101284.50;5026854;28;20033;-74
2022/10/12 00:08:41;;;;;;;17.55;11.60;;;;;;;13.42;83.88;101295.91;5010717;28;20061;-74
2022/10/12 00:11:09;;;;;;;19.65;11.30;;;;;;;13.58;83.36;101287.16;5001745;28;20096;-74
2022/10/12 00:13:35;;;;;;;26.02;9.68;;;;;;;12.99;82.81;101172.75;4992199;28;20799;-74
2022/10/12 00:16:05;;;;;;;24.75;12.52;;;;;;;13.20;82.47;101200.91;5006854;28;20036;-74
2022/10/12 00:18:32;;;;;;;18.33;11.05;;;;;;;13.71;82.74;101291.56;5003320;28;20050;-74
2022/10/12 00:21:09;;;;;;;26.05;12.52;;;;;;;12.97;82.85;101164.00;5009754;28;20030;-73
2022/10/12 00:23:36;;;;;;;17.60;10.57;;;;;;;13.46;83.04;101252.84;5005828;28;20042;-73
2022/10/12 00:26:13;;;;;;;19.05;11.35;;;;;;;13.68;82.63;101277.50;5010597;28;20129;-72
2022/10/12 00:28:39;;;;;;;16.40;10.85;;;;;;;13.82;82.21;101283.66;5008995;28;20073;-74
2022/10/12 00:31:14;;;;;;;22.90;11.65;;;;;;;13.07;81.96;101152.59;5008557;28;20072;-74
2022/10/12 00:33:40;;;;;;;21.23;11.18;;;;;;;13.21;80.99;101159.66;5004221;28;20038;-74
2022/10/12 00:36:27;;;;;;;18.90;11.20;;;;;;;13.27;82.21;101165.84;5006914;28;20101;-74
2022/10/12 00:38:54;;;;;;;24.00;10.73;;;;;;;13.98;82.71;101299.47;5009110;28;20053;-74
2022/10/12 00:41:24;;;;;;;23.90;10.20;;;;;;;13.46;83.20;101221.19;5007255;28;20054;-74
2022/10/12 00:43:51;;;;;;;17.85;10.80;;;;;;;12.91;83.83;101160.47;5008462;28;20405;-73
2022/10/12 00:46:27;;;;;;;18.48;9.82;;;;;;;13.37;83.48;101219.44;5010252;28;20038;-74
2022/10/12 00:48:58;;;;;;;16.88;11.13;;;;;;;13.10;83.42;101164.91;5004208;28;20038;-73
2022/10/12 00:51:24;;;;;;;26.77;12.85;;;;;;;13.57;83.85;101274.84;5012175;28;20097;-73
2022/10/12 00:53:56;;;;;;;18.38;11.10;;;;;;;13.82;83.05;101295.97;5016368;28;20113;-74
2022/10/12 00:56:24;;;;;;;17.75;12.00;;;;;;;13.13;82.72;101170.16;5018157;28;20049;-72
2022/10/12 00:58:50;;;;;;;24.88;10.25;;;;;;;13.16;82.96;101174.56;5002299;28;20073;-72
2022/10/12 01:01:17;;;;;;;23.98;11.88;;;;;;;13.75;83.16;101275.75;5010692;28;20540;-72
2022/10/12 01:03:43;;;;;;;17.27;11.02;;;;;;;13.46;84.48;101277.47;5011658;28;20038;-73
2022/10/12 01:06:09;;;;;;;19.27;12.93;;;;;;;13.60;83.96;101280.13;5023904;28;20049;-74
2022/10/12 01:08:36;;;;;;;25.08;11.23;;;;;;;13.13;83.98;101198.28;5018655;28;20048;-74
2022/10/12 01:11:01;;;;;;;19.40;11.45;;;;;;;12.70;84.36;101138.47;5018281;28;20475;-72
2022/10/12 01:13:28;;;;;;;23.80;10.80;;;;;;;13.34;85.12;101243.16;5007651;28;20052;-72
2022/10/12 01:16:27;;;;;;;30.27;11.77;;;;;;;13.53;86.11;101286.25;5007491;28;20749;-72
2022/10/12 01:19:31;;;;;;;20.92;9.50;;;;;;;13.33;87.25;101294.13;4997080;28;20042;-72
2022/10/12 01:22:07;;;;;;;17.85;10.77;;;;;;;13.17;87.76;101290.53;4956794;28;20034;-73
2022/10/12 01:25:06;;;;;;;20.50;11.02;;;;;;;13.20;87.06;101263.28;4994091;28;20062;-72
2022/10/12 01:27:57;;;;;;;17.05;10.68;;;;;;;13.25;87.17;101285.25;5007891;28;20058;-72
2022/10/12 01:30:36;;;;;;;16.88;11.05;;;;;;;12.70;87.16;101171.81;4998087;28;20026;-72
2022/10/12 01:33:30;;;;;;;35.15;12.30;;;;;;;13.28;86.54;101261.59;5014247;28;20026;-73
2022/10/12 01:36:22;;;;;;;16.20;11.65;;;;;;;12.78;86.89;101192.06;5014218;28;20042;-74
2022/10/12 01:39:23;;;;;;;24.63;12.20;;;;;;;13.29;87.24;101290.59;5012483;28;20084;-74
2022/10/12 01:41:59;;;;;;;22.75;11.75;;;;;;;13.24;87.67;101294.06;4979681;28;20089;-73
2022/10/12 01:44:25;;;;;;;22.05;11.90;;;;;;;13.10;88.57;101294.00;5004736;28;20053;-73
2022/10/12 01:46:53;;;;;;;21.50;11.48;;;;;;;12.48;88.15;101178.72;5007350;28;20069;-73
2022/10/12 01:49:24;;;;;;;24.23;11.48;;;;;;;12.41;88.54;101181.34;4999686;28;20054;-73
2022/10/12 01:52:22;;;;;;;34.60;10.45;;;;;;;13.01;89.23;101309.78;5009682;28;20033;-73
2022/10/12 01:54:54;;;;;;;23.33;11.77;;;;;;;12.97;88.81;101284.28;5024819;28;20045;-73
2022/10/12 01:58:02;;;;;;;18.30;11.93;;;;;;;13.15;88.92;101304.56;5001963;28;20121;-73
2022/10/12 02:00:30;;;;;;;20.77;11.02;;;;;;;12.83;89.20;101269.31;4983989;28;20056;-73
2022/10/12 02:03:18;;;;;;;24.27;11.30;;;;;;;13.14;89.24;101316.88;5006962;28;20021;-72
2022/10/12 02:05:59;;;;;;;27.95;12.32;;;;;;;13.14;89.08;101306.34;5001957;28;20565;-73
2022/10/12 02:08:46;;;;;;;21.02;10.32;;;;;;;12.53;89.14;101204.22;5005910;28;20081;-74
2022/10/12 02:11:17;;;;;;;33.08;18.30;;;;;;;13.02;89.56;101322.09;5012063;28;20125;-73
2022/10/12 02:14:10;;;;;;;26.30;14.38;;;;;;;12.74;89.71;101282.44;5002098;28;20496;-73
2022/10/12 02:16:44;;;;;;;21.80;11.30;;;;;;;12.17;90.02;101200.50;4996641;28;20077;-72
2022/10/12 02:19:15;;;;;;;22.92;11.75;;;;;;;12.45;89.13;101213.81;5005144;28;20784;-73
2022/10/12 02:21:42;;;;;;;25.45;12.68;;;;;;;12.71;88.44;101221.84;5015188;28;20146;-74
2022/10/12 02:24:09;;;;;;;17.80;11.77;;;;;;;12.95;88.44;101265.00;4990204;28;20142;-73
2022/10/12 02:26:40;;;;;;;21.45;12.35;;;;;;;12.35;89.67;101212.03;5007233;28;20091;-73
2022/10/12 02:29:12;;;;;;;17.27;10.80;;;;;;;12.11;90.44;101194.34;5007070;28;20623;-74
2022/10/12 02:31:57;;;;;;;20.70;12.40;;;;;;;12.12;91.28;101210.13;5006893;28;20084;-73
2022/10/12 02:34:35;;;;;;;19.38;11.80;;;;;;;12.75;91.48;101313.16;5010983;28;20080;-73
2022/10/12 02:37:25;;;;;;;25.23;10.20;;;;;;;13.05;90.19;101308.94;5006460;28;20054;-73
2022/10/12 02:39:53;;;;;;;20.58;12.60;;;;;;;13.08;89.94;101296.63;4995365;28;20050;-73
2022/10/12 02:42:28;;;;;;;18.05;10.65;;;;;;;12.38;89.88;101194.47;4995974;28;20026;-73
2022/10/12 02:44:57;;;;;;;21.98;10.13;;;;;;;12.98;91.04;101317.69;5004181;28;20022;-73
2022/10/12 02:47:26;;;;;;;22.40;10.95;;;;;;;12.80;90.38;101244.72;5004555;28;20057;-73
2022/10/12 02:49:54;;;;;;;19.00;10.25;;;;;;;13.30;89.71;101317.84;5009132;28;20045;-73
2022/10/12 02:52:21;;;;;;;17.48;11.57;;;;;;;13.28;89.71;101311.69;5012996;28;20115;-73
2022/10/12 02:54:47;;;;;;;17.63;11.07;;;;;;;13.30;89.71;101318.72;5009837;28;20051;-72
2022/10/12 02:57:12;;;;;;;18.55;11.30;;;;;;;13.41;89.00;101321.38;5005732;28;20037;-74
2022/10/12 02:59:38;;;;;;;19.65;11.70;;;;;;;13.40;89.16;101324.03;5017665;28;20436;-74
2022/10/12 03:02:03;;;;;;;24.38;10.60;;;;;;;12.79;89.63;101227.16;5021092;28;20042;-74
2022/10/12 03:04:29;;;;;;;16.88;9.27;;;;;;;11.89;90.59;101096.88;4986669;28;20402;-73
2022/10/12 03:06:54;;;;;;;17.13;10.90;;;;;;;11.27;91.57;101032.50;5010978;28;20056;-73
2022/10/12 03:09:20;;;;;;;19.00;12.13;;;;;;;12.20;92.67;101224.22;5014722;28;20048;-73
2022/10/12 03:11:45;;;;;;;20.05;12.07;;;;;;;12.31;92.79;101234.78;5006691;28;20137;-72
2022/10/12 03:14:12;;;;;;;19.63;11.35;;;;;;;12.66;94.08;101302.56;5010372;28;20081;-72
2022/10/12 03:16:37;;;;;;;17.95;11.48;;;;;;;12.85;93.42;101335.16;5010894;28;20045;-72
2022/10/12 03:19:03;;;;;;;19.20;10.57;;;;;;;12.23;93.21;101213.72;5008815;28;20037;-73
2022/10/12 03:21:28;;;;;;;23.38;11.27;;;;;;;11.88;94.31;101220.50;5014331;28;20033;-74
2022/10/12 03:23:53;;;;;;;22.00;10.35;;;;;;;11.91;93.81;101216.13;5010955;28;20026;-73
2022/10/12 03:26:19;;;;;;;21.52;10.52;;;;;;;12.60;93.62;101337.66;4991511;28;20045;-75
2022/10/12 03:28:44;;;;;;;19.60;11.23;;;;;;;11.86;93.80;101222.19;5010224;28;20057;-74
2022/10/12 03:31:10;;;;;;;24.40;13.27;;;;;;;12.37;93.76;101313.81;5010881;28;20093;-74
2022/10/12 03:33:35;;;;;;;28.45;12.85;;;;;;;12.16;93.75;101284.72;5007209;28;20054;-74
2022/10/12 03:36:01;;;;;;;37.53;16.17;;;;;;;12.42;94.37;101345.44;5010517;28;20018;-74
2022/10/12 03:38:26;;;;;;;27.88;14.40;;;;;;;12.03;93.94;101270.56;5014759;28;20371;-73
2022/10/12 03:40:52;;;;;;;27.20;12.13;;;;;;;12.46;94.06;101342.81;4988727;28;20058;-71
2022/10/12 03:43:17;;;;;;;24.17;12.60;;;;;;;12.20;94.00;101310.19;4987462;28;20049;-73
2022/10/12 03:45:43;;;;;;;18.48;10.05;;;;;;;12.46;93.29;101321.78;4991632;28;20121;-73
2022/10/12 03:48:08;;;;;;;25.30;10.10;;;;;;;12.40;93.86;101347.16;4972274;28;20042;-73
2022/10/12 03:50:34;;;;;;;17.35;10.05;;;;;;;12.41;94.16;101360.34;4993174;28;20083;-72
2022/10/12 03:53:02;;;;;;;16.15;9.30;;;;;;;11.78;93.67;101232.66;4994794;28;20062;-75
2022/10/12 03:55:27;;;;;;;15.20;9.63;;;;;;;12.33;94.77;101356.75;4988674;28;20054;-73
2022/10/12 03:57:53;;;;;;;15.20;9.07;;;;;;;12.01;95.75;101312.66;4988934;28;20039;-72
2022/10/12 04:00:18;;;;;;;11.73;8.05;;;;;;;11.66;96.79;101257.09;5004360;28;20030;-73
2022/10/12 04:02:44;;;;;;;17.45;8.38;;;;;;;12.14;97.10;101331.16;4986193;28;20034;-73
2022/10/12 04:05:09;;;;;;;20.10;10.07;;;;;;;11.96;98.27;101326.63;4988043;28;20092;-74
2022/10/12 04:07:35;;;;;;;16.45;9.32;;;;;;;11.49;99.12;101251.66;5002925;28;20119;-74
2022/10/12 04:10:00;;;;;;;15.60;8.98;;;;;;;12.07;99.88;101351.28;5005443;28;20485;-72
2022/10/12 04:12:26;;;;;;;13.20;8.85;;;;;;;12.03;100.00;101353.00;4990934;28;20023;-73
2022/10/12 04:14:51;;;;;;;18.13;9.50;;;;;;;11.15;100.00;101216.28;4999099;28;20018;-73
2022/10/12 04:17:17;;;;;;;15.90;9.43;;;;;;;11.14;100.00;101223.28;4994623;28;20442;-74
2022/10/12 04:19:43;;;;;;;13.35;8.02;;;;;;;11.15;100.00;101216.28;5001132;28;20719;-73
2022/10/12 04:22:08;;;;;;;15.60;8.23;;;;;;;11.16;100.00;101215.41;4990132;28;20081;-74
2022/10/12 04:24:34;;;;;;;15.10;8.75;;;;;;;11.97;100.00;101367.84;4971464;28;20042;-74
2022/10/12 04:26:59;;;;;;;16.92;8.90;;;;;;;12.07;100.00;101368.81;4987175;28;20572;-75
2022/10/12 04:29:25;;;;;;;19.65;8.38;;;;;;;12.13;100.00;101366.25;4985502;28;20066;-75
2022/10/12 04:31:50;;;;;;;16.00;8.90;;;;;;;11.19;100.00;101228.56;4990802;28;20068;-73
2022/10/12 04:34:16;;;;;;;15.38;9.27;;;;;;;11.98;100.00;101385.38;4988899;28;20701;-73
2022/10/12 04:36:41;;;;;;;16.85;8.65;;;;;;;11.12;100.00;101222.41;4974116;28;20477;-73
2022/10/12 04:39:07;;;;;;;19.45;10.75;;;;;;;11.94;100.00;101375.69;4994260;28;20541;-73
2022/10/12 04:41:33;;;;;;;13.30;8.15;;;;;;;11.39;100.00;101273.47;5005198;28;20560;-73
2022/10/12 04:43:58;;;;;;;11.85;7.90;;;;;;;11.93;100.00;101381.84;4989727;28;20053;-75
2022/10/12 04:46:24;;;;;;;13.32;8.50;;;;;;;11.84;100.00;101372.94;5008196;28;20077;-74
2022/10/12 04:48:50;;;;;;;16.33;9.57;;;;;;;11.87;100.00;101379.09;5000582;28;20533;-73
2022/10/12 04:51:15;;;;;;;9.60;8.20;;;;;;;11.92;100.00;101369.56;5002572;28;20505;-72
2022/10/12 04:53:41;;;;;;;14.15;8.77;;;;;;;11.80;100.00;101372.91;5012921;28;20060;-73
2022/10/12 04:56:07;;;;;;;15.00;8.52;;;;;;;11.72;100.00;101329.88;5006013;28;20042;-74
2022/10/12 04:58:40;;;;;;;17.45;9.18;;;;;;;12.01;100.00;101395.94;5001242;28;20046;-73
2022/10/12 05:01:05;;;;;;;17.05;9.10;;;;;;;11.16;100.00;101262.69;5008391;28;20132;-74
2022/10/12 05:03:31;;;;;;;15.20;9.23;;;;;;;11.82;100.00;101390.47;5007588;28;20049;-74
2022/10/12 05:06:02;;;;;;;20.52;10.23;;;;;;;11.83;100.00;101393.97;5003577;28;20025;-73
2022/10/12 05:08:28;;;;;;;27.20;9.00;;;;;;;11.76;100.00;101400.03;5018344;28;20049;-73
2022/10/12 05:10:56;;;;;;;18.13;7.90;;;;;;;11.08;100.00;101252.09;5005441;28;20057;-73
2022/10/12 05:13:22;;;;;;;17.80;9.77;;;;;;;11.01;100.00;101267.78;4997199;28;20102;-72
2022/10/12 05:15:48;;;;;;;18.85;9.05;;;;;;;11.84;100.00;101399.22;5015466;28;20458;-74
2022/10/12 05:18:13;;;;;;;13.85;8.73;;;;;;;12.04;100.00;101407.38;4990222;28;20458;-75
2022/10/12 05:20:39;;;;;;;22.52;8.60;;;;;;;11.78;100.00;101383.41;5004512;28;20498;-73
2022/10/12 05:23:04;;;;;;;11.68;8.57;;;;;;;11.49;100.00;101319.09;4990322;28;20169;-75
2022/10/12 05:25:30;;;;;;;22.90;9.85;;;;;;;11.82;100.00;101397.44;5008450;28;20506;-73
2022/10/12 05:27:56;;;;;;;13.75;8.55;;;;;;;11.11;100.00;101312.53;5016664;28;20389;-74
2022/10/12 05:30:22;;;;;;;23.83;10.40;;;;;;;11.47;100.00;101357.63;5002628;28;20546;-73
2022/10/12 05:32:48;;;;;;;18.45;9.30;;;;;;;11.79;100.00;101421.09;5003897;28;20026;-73
2022/10/12 05:35:14;;;;;;;20.95;10.20;;;;;;;11.80;100.00;101422.88;5007486;28;20820;-74
2022/10/12 05:37:39;;;;;;;19.42;9.65;;;;;;;11.68;100.00;101391.16;5013233;28;20050;-74
2022/10/12 05:40:06;;;;;;;17.60;10.85;;;;;;;11.66;100.00;101412.19;4999692;28;20132;-73
2022/10/12 05:42:33;;;;;;;17.50;9.43;;;;;;;11.13;100.00;101302.06;4978815;28;20580;-74
2022/10/12 05:44:59;;;;;;;20.02;10.25;;;;;;;12.06;100.00;101441.59;4987082;28;20029;-74
2022/10/12 05:47:24;;;;;;;17.15;11.10;;;;;;;11.80;100.00;101415.00;4985597;28;20058;-76
2022/10/12 05:49:50;;;;;;;19.98;9.52;;;;;;;11.84;99.92;101430.78;5001518;28;20038;-74
2022/10/12 05:52:16;;;;;;;24.88;11.85;;;;;;;11.79;99.77;101424.59;4998689;28;20042;-74
2022/10/12 05:54:41;;;;;;;19.50;11.25;;;;;;;11.51;99.72;101393.59;4963179;28;20066;-78
2022/10/12 05:57:06;;;;;;;21.95;11.43;;;;;;;12.03;99.22;101460.88;4981946;28;20033;-75
2022/10/12 05:59:32;;;;;;;20.63;11.02;;;;;;;12.10;98.34;101458.28;4976574;28;20058;-75
2022/10/12 06:02:02;;;;;;;17.25;10.52;;;;;;;11.80;97.78;101425.50;4982111;28;20386;-83
2022/10/12 06:04:27;;;;;;;23.13;12.52;;;;;;;11.14;98.25;101332.72;4976950;28;20565;-78
2022/10/12 06:06:52;;;;;;;19.85;10.55;;;;;;;11.82;98.19;101442.16;4985920;28;20039;-78
2022/10/12 06:09:18;;;;;;;28.05;12.07;;;;;;;11.07;98.27;101337.00;4986738;28;20569;-78
2022/10/12 06:11:43;;;;;;;19.92;10.55;;;;;;;11.79;98.12;101473.69;4982858;28;20367;-82
2022/10/12 06:14:09;;;;;;;15.25;9.73;;;;;;;11.78;98.59;101485.97;4985915;28;20144;-81
2022/10/12 06:16:35;;;;;;;12.82;9.50;;;;;;;11.09;98.49;101347.53;4985914;28;20046;-77
2022/10/12 06:19:00;;;;;;;22.50;10.63;;;;;;;11.78;97.33;101432.50;4965784;28;20042;-79
2022/10/12 06:21:28;;;;;;;14.00;9.98;;;;;;;11.66;96.41;101388.53;4987090;28;20027;-83
2022/10/12 06:23:55;;;;;;;16.60;9.57;;;;;;;11.77;96.32;101438.59;4987215;28;20069;-81
2022/10/12 06:26:20;;;;;;;22.52;10.65;;;;;;;12.04;96.59;101491.56;4967230;28;20510;-81
2022/10/12 06:28:46;;;;;;;17.92;9.95;;;;;;;11.34;96.74;101365.38;4985350;28;20034;-85
2022/10/12 06:31:12;;;;;;;23.35;11.13;;;;;;;12.28;95.72;101491.81;4986947;28;20596;-84
2022/10/12 06:33:38;;;;;;;16.25;10.20;;;;;;;12.20;95.91;101512.78;4985848;28;20070;-81
2022/10/12 06:36:03;;;;;;;17.27;10.73;;;;;;;11.74;94.96;101399.13;4987002;28;20034;-82
2022/10/12 06:38:29;;;;;;;31.80;11.68;;;;;;;10.86;95.07;101269.34;4977322;28;20102;-81
2022/10/12 06:40:54;;;;;;;22.58;9.93;;;;;;;12.29;94.76;101477.78;4999914;28;20041;-79
2022/10/12 06:43:21;;;;;;;15.40;10.35;;;;;;;11.40;94.78;101361.94;5004300;28;20049;-79
2022/10/12 06:45:47;;;;;;;20.92;9.02;;;;;;;11.71;94.05;101394.72;4998381;28;20493;-79
2022/10/12 06:48:13;;;;;;;20.58;10.00;;;;;;;12.30;93.44;101475.16;5006229;28;20026;-81
2022/10/12 06:50:38;;;;;;;21.33;10.15;;;;;;;12.27;93.61;101498.84;5005370;28;20713;-81
2022/10/12 06:53:04;;;;;;;21.65;10.15;;;;;;;11.96;92.67;101395.91;5000865;28;20043;-79
2022/10/12 06:55:29;;;;;;;24.95;10.52;;;;;;;12.57;92.23;101484.19;4999791;28;20149;-81
2022/10/12 06:57:55;;;;;;;16.77;10.10;;;;;;;12.67;91.97;101509.75;5003597;28;20052;-79
2022/10/12 07:00:21;;;;;;;20.45;11.93;;;;;;;12.80;92.08;101497.56;4988635;28;20030;-82
2022/10/12 07:02:50;;;;;;;19.83;10.70;;;;;;;12.42;90.79;101404.22;5008965;28;20104;-82
2022/10/12 07:05:17;;;;;;;21.52;11.45;;;;;;;13.13;89.87;101507.47;4997663;28;20057;-85
2022/10/12 07:07:42;;;;;;;18.65;10.45;;;;;;;12.87;90.92;101502.00;5007928;28;20046;-83
2022/10/12 07:10:08;;;;;;;26.52;11.13;;;;;;;12.40;91.16;101457.72;5003621;28;20413;-81
2022/10/12 07:12:35;;;;;;;21.45;11.13;;;;;;;12.22;90.48;101406.69;4980993;28;20120;-82
2022/10/12 07:15:02;;;;;;;19.50;10.20;;;;;;;12.35;90.25;101388.38;4987912;28;20034;-82
2022/10/12 07:17:27;;;;;;;29.65;11.55;;;;;;;13.17;89.23;101509.25;5007344;28;20419;-83
2022/10/12 07:19:53;;;;;;;14.27;11.35;;;;;;;12.51;89.43;101415.69;4993022;28;20729;-84
2022/10/12 07:22:18;;;;;;;24.30;11.40;;;;;;;12.99;89.59;101506.47;4995250;28;20533;-82
2022/10/12 07:24:43;;;;;;;15.82;10.90;;;;;;;12.32;89.06;101385.72;5016516;28;20152;-81
2022/10/12 07:27:09;;;;;;;23.95;11.55;;;;;;;13.27;88.39;101510.19;4995538;28;20124;-81
2022/10/12 07:29:37;;;;;;;16.95;10.88;;;;;;;13.26;88.29;101522.50;5006827;28;20061;-79
2022/10/12 07:32:03;;;;;;;22.48;11.10;;;;;;;13.45;88.05;101518.25;5006546;28;20049;-82
2022/10/12 07:34:29;;;;;;;27.23;12.50;;;;;;;12.63;87.12;101361.38;4987558;28;20754;-81
2022/10/12 07:36:55;;;;;;;21.27;10.75;;;;;;;13.21;86.09;101431.97;5002616;28;20070;-82
2022/10/12 07:39:21;;;;;;;24.23;11.38;;;;;;;12.99;86.11;101409.00;5006461;28;20049;-84
2022/10/12 07:41:51;;;;;;;21.85;11.77;;;;;;;13.85;84.97;101507.91;4983922;28;20085;-84
2022/10/12 07:44:16;;;;;;;18.73;11.07;;;;;;;13.83;85.51;101509.66;4988274;28;20097;-82
2022/10/12 07:46:42;;;;;;;16.38;11.13;;;;;;;13.13;85.28;101395.91;4986378;28;20418;-84
2022/10/12 07:49:10;;;;;;;19.35;10.68;;;;;;;13.33;85.13;101412.75;4994190;28;20787;-74
2022/10/12 07:51:35;;;;;;;20.15;10.70;;;;;;;13.65;83.66;101406.72;4982872;28;20077;-79
2022/10/12 07:54:01;;;;;;;22.15;10.73;;;;;;;14.26;83.46;101485.19;4973153;28;20491;-80
2022/10/12 07:56:26;;;;;;;25.85;10.40;;;;;;;14.47;83.38;101514.25;4996287;28;20050;-75
2022/10/12 07:58:54;;;;;;;17.05;9.52;;;;;;;13.75;82.60;101387.41;4990746;28;20063;-75
2022/10/12 08:01:22;;;;;;;15.82;10.40;;;;;;;13.66;81.99;101380.34;4967231;28;20173;-76
2022/10/12 08:03:48;;;;;;;20.13;9.00;;;;;;;13.94;82.18;101412.94;4974343;28;20053;-75
2022/10/12 08:06:17;;;;;;;20.02;8.25;;;;;;;14.41;81.36;101453.50;4989892;28;20035;-77
2022/10/12 08:08:43;;;;;;;15.05;9.35;;;;;;;14.64;81.19;101469.41;4980252;28;20517;-75
2022/10/12 08:11:09;;;;;;;13.60;8.68;;;;;;;14.59;80.74;101441.25;4980436;28;20043;-73
2022/10/12 08:13:35;;;;;;;14.90;7.55;;;;;;;14.85;80.93;101508.16;4984474;28;20066;-75
2022/10/12 08:16:03;;;;;;;14.20;8.77;;;;;;;14.97;80.95;101509.91;5000053;28;20034;-76
2022/10/12 08:18:28;;;;;;;11.02;8.18;;;;;;;15.22;79.80;101513.44;4986815;28;20177;-76
2022/10/12 08:20:54;;;;;;;16.45;8.82;;;;;;;14.59;79.82;101410.41;4974873;28;20112;-75
2022/10/12 08:23:19;;;;;;;13.20;8.02;;;;;;;15.38;79.54;101532.78;4988998;28;20047;-74
2022/10/12 08:25:57;;;;;;;21.70;10.68;;;;;;;15.50;79.07;101518.63;4994358;28;20049;-75
2022/10/12 08:28:23;;;;;;;10.27;8.18;;;;;;;15.45;79.64;101523.94;4988867;28;20039;-75
2022/10/12 08:30:50;;;;;;;17.88;7.95;;;;;;;14.99;78.92;101402.44;4988894;28;20340;-77
2022/10/12 08:33:16;;;;;;;25.85;9.73;;;;;;;15.35;78.77;101464.91;4989397;28;20066;-75
2022/10/12 08:35:43;;;;;;;28.75;8.52;;;;;;;15.06;77.92;101398.88;4994896;28;20034;-75
2022/10/12 08:38:12;;;;;;;13.70;6.35;;;;;;;15.43;78.58;101488.69;4981566;28;20042;-74
2022/10/12 08:40:50;;;;;;;15.30;7.18;;;;;;;15.89;77.96;101520.31;5003015;28;20686;-74
2022/10/12 08:43:22;;;;;;;23.05;8.43;;;;;;;15.09;78.42;101438.53;5003258;28;20125;-74
2022/10/12 08:45:58;;;;;;;18.08;8.23;;;;;;;15.96;77.39;101518.53;5015943;28;20070;-76
2022/10/12 08:48:34;;;;;;;15.60;7.13;;;;;;;15.25;77.23;101397.06;5008012;28;20189;-75
2022/10/12 08:51:13;;;;;;;10.30;5.95;;;;;;;16.18;76.19;101500.78;4984375;28;20081;-75
2022/10/12 08:53:59;;;;;;;11.30;6.28;;;;;;;15.93;76.68;101522.06;5008840;28;20046;-75
2022/10/12 08:56:25;;;;;;;15.60;5.80;;;;;;;15.84;76.19;101492.97;5010827;28;20065;-75
2022/10/12 08:58:52;;;;;;;14.15;7.72;;;;;;;15.62;76.89;101395.16;5010614;28;20045;-76
2022/10/12 09:01:27;;;;;;;12.85;6.75;;;;;;;16.46;74.91;101509.44;5012999;28;20084;-74
2022/10/12 09:04:22;;;;;;;15.90;7.38;;;;;;;16.12;75.71;101521.97;5020476;28;20053;-76
2022/10/12 09:07:08;;;;;;;15.43;7.75;;;;;;;15.91;77.08;101537.06;4970586;28;20129;-76
2022/10/12 09:09:55;;;;;;;23.58;7.78;;;;;;;16.20;76.01;101531.66;5008964;28;20050;-74
2022/10/12 09:12:35;;;;;;;12.20;7.00;;;;;;;16.16;75.40;101526.38;4990123;28;20033;-75
2022/10/12 09:15:15;;;;;;;13.90;8.20;;;;;;;15.61;75.38;101409.25;4996780;28;20041;-75
2022/10/12 09:17:49;;;;;;;13.82;6.45;;;;;;;16.29;75.55;101490.09;5003894;28;20077;-77
2022/10/12 09:20:25;;;;;;;13.32;6.25;;;;;;;16.71;73.57;101525.16;5002161;28;20045;-78
2022/10/12 09:23:06;;;;;;;12.63;7.70;;;;;;;16.56;73.69;101503.16;5000304;28;20062;-76
2022/10/12 09:25:32;;;;;;;12.18;7.15;;;;;;;16.71;74.79;101518.06;5015824;28;20124;-77
2022/10/12 09:28:12;;;;;;;10.07;6.78;;;;;;;16.73;75.15;101503.03;5010658;28;20042;-77
2022/10/12 09:30:45;;;;;;;13.02;6.75;;;;;;;15.85;74.05;101394.19;5008307;28;20481;-74
2022/10/12 09:33:22;;;;;;;12.97;7.17;;;;;;;16.46;74.47;101510.31;5013307;28;20022;-77
2022/10/12 09:35:49;;;;;;;17.50;5.43;;;;;;;16.05;73.51;101431.09;5003052;28;20042;-75
2022/10/12 09:38:15;;;;;;;17.48;6.45;;;;;;;16.57;73.73;101496.09;5009465;28;20046;-75
2022/10/12 09:40:47;;;;;;;12.57;6.85;;;;;;;16.76;73.64;101510.94;5006688;28;20445;-75
2022/10/12 09:43:13;;;;;;;18.15;7.65;;;;;;;16.11;72.40;101403.69;5006362;28;20045;-76
2022/10/12 09:45:39;;;;;;;12.75;7.43;;;;;;;16.36;72.41;101454.72;5007308;28;20042;-76
2022/10/12 09:48:22;;;;;;;12.13;6.97;;;;;;;16.31;72.14;101422.97;4990106;28;20095;-75
2022/10/12 09:50:56;;;;;;;13.18;6.10;;;;;;;17.06;71.84;101520.44;4985111;28;20457;-77
2022/10/12 09:53:30;;;;;;;14.60;6.05;;;;;;;16.75;71.58;101474.75;4997799;28;20152;-77
2022/10/12 09:56:00;;;;;;;11.85;5.97;;;;;;;16.73;71.64;101431.47;5006966;28;20520;-76
2022/10/12 09:58:27;;;;;;;10.65;6.55;;;;;;;16.89;70.27;101493.22;4989460;28;20112;-74
2022/10/12 10:01:12;;;;;;;11.07;6.40;;;;;;;17.28;69.70;101518.50;5004933;28;21240;-75
2022/10/12 10:03:37;;;;;;;14.60;6.70;;;;;;;17.05;69.62;101494.84;5014466;28;20042;-74
2022/10/12 10:06:04;;;;;;;13.50;7.03;;;;;;;16.59;69.58;101385.66;4990282;28;20712;-75
2022/10/12 10:08:42;;;;;;;14.73;5.88;;;;;;;17.32;69.03;101510.50;5004246;28;20056;-75
2022/10/12 10:11:14;;;;;;;11.00;5.63;;;;;;;16.88;69.89;101401.34;4984272;28;20646;-76
2022/10/12 10:13:46;;;;;;;9.88;5.60;;;;;;;16.69;67.96;101387.31;5006156;28;20099;-75
2022/10/12 10:16:12;;;;;;;24.17;4.95;;;;;;;16.86;67.80;101392.53;5003699;28;20045;-75
2022/10/12 10:18:54;;;;;;;14.07;3.95;;;;;;;17.47;66.76;101492.66;5005742;28;20057;-76
2022/10/12 10:21:26;;;;;;;17.27;6.68;;;;;;;17.41;67.19;101524.53;5015665;28;20060;-75
2022/10/12 10:24:06;;;;;;;13.77;5.93;;;;;;;17.08;66.79;101455.03;5000712;28;20107;-74
2022/10/12 10:27:25;;;;;;;14.13;6.40;;;;;;;17.68;67.39;101495.94;4999432;28;20050;-77
2022/10/12 10:29:50;;;;;;;12.02;6.05;;;;;;;17.81;66.24;101491.38;4914529;29;20079;-77
2022/10/12 10:32:28;;;;;;;9.73;5.38;;;;;;;17.52;62.42;101495.25;4981892;28;20080;-76
2022/10/12 10:35:11;;;;;;;9.50;4.63;;;;;;;17.08;62.23;101401.97;4993438;28;20052;-75
2022/10/12 10:37:44;;;;;;;8.98;4.88;;;;;;;17.56;60.32;101437.69;4997987;28;20050;-74
2022/10/12 10:40:32;;;;;;;11.40;4.97;;;;;;;17.36;56.51;101392.84;4996690;28;20131;-75
2022/10/12 10:43:04;;;;;;;8.43;4.03;;;;;;;17.64;54.98;101459.72;4982646;28;20057;-79
2022/10/12 10:45:37;;;;;;;16.50;3.53;;;;;;;17.43;52.93;101386.56;5014646;28;20060;-79
2022/10/12 10:48:07;;;;;;;;;;;;;;;18.14;55.08;101472.38;4986847;28;20034;-78
2022/10/12 10:50:36;;;;;;;6.45;3.80;;;;;;;18.22;54.34;101466.06;5008290;28;20000;-75
2022/10/12 10:53:12;;;;;;;18.42;3.25;;;;;;;18.24;52.52;101448.28;5008519;28;20052;-77
2022/10/12 10:55:43;;;;;;;14.38;4.45;;;;;;;18.51;53.95;101466.47;5015434;28;20098;-75
2022/10/12 10:58:32;;;;;;;9.98;4.80;;;;;;;18.11;55.61;101452.91;4999464;28;20081;-76
2022/10/12 11:01:06;;;;;;;10.30;4.03;;;;;;;18.45;55.45;101455.97;4998526;28;20064;-75
2022/10/12 11:03:48;;;;;;;8.98;4.90;;;;;;;18.43;56.13;101425.88;5000190;28;20032;-76
2022/10/12 11:06:19;;;;;;;9.23;4.13;;;;;;;18.50;49.94;101450.56;5000064;28;20032;-76
2022/10/12 11:08:50;;;;;;;10.07;3.38;;;;;;;17.75;48.54;101358.69;5016987;28;20062;-76
2022/10/12 11:11:21;;;;;;;11.05;4.60;;;;;;;18.26;50.23;101447.41;5005798;28;20112;-77
2022/10/12 11:13:59;;;;;;;15.30;3.45;;;;;;;18.25;45.35;101444.75;4997314;28;20054;-75
2022/10/12 11:16:51;;;;;;;5.50;2.33;;;;;;;18.40;44.82;101444.50;4990245;28;20539;-74
2022/10/12 11:19:31;;;;;;;15.38;4.00;;;;;;;17.74;44.65;101347.19;4987239;28;20485;-78
2022/10/12 11:22:02;;;;;;;8.30;4.47;;;;;;;18.08;45.66;101442.34;4999040;28;20057;-75
2022/10/12 11:24:42;;;;;;;14.05;5.35;;;;;;;18.18;46.84;101438.66;5007189;28;20061;-79
2022/10/12 11:27:24;;;;;;;6.10;3.45;;;;;;;18.34;48.65;101444.59;5001265;28;20389;-81